Time;durP1;ratioP1;P1;durP2;ratioP2;P2;SDS_P1;SDS_P2;PMS_P1;PMS_P2;Temp;Humidity;BMP_temperature;BMP_pressure;BME280_temperature;BME280_humidity;BME280_pressure;Samples;Min_cycle;Max_cycle;Signal;HPM_P1;HPM_P2
2022/06/18 00:00:23;;;;;;;4.93;4.50;;;25.90;49.80;;;;;;5031177;28;20532;-67
2022/06/18 00:02:49;;;;;;;6.93;4.40;;;25.70;50.20;;;;;;5032212;28;20674;-67
2022/06/18 00:05:17;;;;;;;5.93;4.70;;;25.60;50.60;;;;;;5030717;28;20549;-66
2022/06/18 00:07:47;;;;;;;5.30;4.00;;;25.60;50.80;;;;;;5032051;28;20608;-66
2022/06/18 00:10:22;;;;;;;4.30;4.00;;;25.60;51.10;;;;;;5033801;28;20458;-66
2022/06/18 00:15:36;;;;;;;4.47;4.10;;;25.60;51.50;;;;;;5034139;28;20474;-67
2022/06/18 00:18:02;;;;;;;4.43;4.03;;;25.50;51.90;;;;;;5033479;28;20977;-66
2022/06/18 00:20:34;;;;;;;4.30;3.90;;;25.50;52.30;;;;;;5032398;28;20628;-66
2022/06/18 00:23:02;;;;;;;10.00;4.60;;;25.50;52.40;;;;;;5032232;28;20493;-68
2022/06/18 00:25:39;;;;;;;4.73;4.27;;;25.50;52.30;;;;;;5034765;28;20988;-66
2022/06/18 00:28:14;;;;;;;4.67;4.17;;;25.50;52.60;;;;;;5015786;28;20802;-66
2022/06/18 00:30:41;;;;;;;5.50;3.90;;;25.30;53.20;;;;;;5028507;28;20427;-66
2022/06/18 00:33:07;;;;;;;4.33;3.93;;;25.40;53.90;;;;;;5032574;28;20454;-66
2022/06/18 00:35:34;;;;;;;4.33;3.93;;;25.20;53.60;;;;;;5032246;28;21191;-66
2022/06/18 00:38:02;;;;;;;4.50;4.10;;;25.20;53.70;;;;;;5016402;28;20846;-66
2022/06/18 00:40:40;;;;;;;5.17;4.30;;;25.20;53.30;;;;;;5031462;28;20451;-66
2022/06/18 00:43:17;;;;;;;3.97;3.67;;;25.10;53.20;;;;;;5030070;28;20462;-67
2022/06/18 00:45:43;;;;;;;5.33;3.67;;;25.00;53.10;;;;;;5032803;28;20560;-68
2022/06/18 00:48:24;;;;;;;4.30;4.00;;;25.00;52.90;;;;;;5015519;28;21017;-68
2022/06/18 00:50:54;;;;;;;3.67;3.37;;;25.00;52.70;;;;;;5034253;28;20223;-67
2022/06/18 00:53:36;;;;;;;4.67;4.27;;;24.90;53.30;;;;;;5031139;28;20475;-68
2022/06/18 00:56:11;;;;;;;3.93;3.43;;;24.90;53.30;;;;;;5029847;28;20475;-68
2022/06/18 00:58:45;;;;;;;4.40;4.00;;;24.80;53.30;;;;;;5044794;28;20438;-66
2022/06/18 01:01:22;;;;;;;4.00;3.70;;;24.80;53.40;;;;;;5030424;28;20476;-66
2022/06/18 01:03:48;;;;;;;4.30;3.93;;;24.80;53.20;;;;;;5030327;28;20457;-67
2022/06/18 01:06:24;;;;;;;4.70;4.30;;;24.70;53.30;;;;;;5031423;28;21115;-67
2022/06/18 01:09:06;;;;;;;4.00;3.70;;;24.60;53.60;;;;;;5030209;28;20567;-67
2022/06/18 01:11:35;;;;;;;4.60;4.10;;;24.50;54.10;;;;;;5020611;28;20466;-66
2022/06/18 01:14:05;;;;;;;5.80;4.23;;;24.30;54.50;;;;;;5032999;28;20623;-66
2022/06/18 01:16:32;;;;;;;6.20;4.10;;;24.10;55.20;;;;;;5032743;28;20447;-65
2022/06/18 01:19:00;;;;;;;4.77;4.00;;;24.10;55.30;;;;;;5029316;28;20446;-67
2022/06/18 01:21:43;;;;;;;5.33;4.83;;;24.10;55.70;;;;;;5030506;28;20449;-67
2022/06/18 01:24:15;;;;;;;5.00;4.43;;;24.10;55.70;;;;;;5018450;28;20442;-66
2022/06/18 01:26:43;;;;;;;4.50;4.10;;;23.90;55.90;;;;;;5029420;28;20488;-65
2022/06/18 01:29:09;;;;;;;4.60;4.20;;;23.90;55.80;;;;;;5029151;28;20438;-65
2022/06/18 01:31:35;;;;;;;4.60;4.20;;;23.90;55.90;;;;;;5029120;28;20442;-65
2022/06/18 01:34:01;;;;;;;4.13;3.73;;;23.90;55.80;;;;;;5032606;28;20274;-66
2022/06/18 01:36:31;;;;;;;10.33;4.00;;;23.90;55.90;;;;;;5036026;28;20295;-66
2022/06/18 01:38:57;;;;;;;4.80;3.90;;;24.00;55.70;;;;;;5035618;28;20513;-65
2022/06/18 01:41:52;;;;;;;4.17;3.83;;;24.00;55.80;;;;;;5039211;28;20903;-65
2022/06/18 01:44:42;;;;;;;5.00;4.60;;;24.00;55.80;;;;;;5038617;28;20199;-65
2022/06/18 01:47:18;;;;;;;4.40;3.70;;;24.00;55.70;;;;;;5040422;28;22259;-68
2022/06/18 01:49:50;;;;;;;5.40;3.90;;;24.10;55.70;;;;;;5035122;28;20438;-67
2022/06/18 01:52:20;;;;;;;4.40;4.00;;;23.80;56.30;;;;;;5034176;28;20473;-65
2022/06/18 01:54:49;;;;;;;4.07;3.77;;;23.90;56.50;;;;;;5046232;28;20834;-65
2022/06/18 01:57:21;;;;;;;4.40;3.83;;;23.70;56.90;;;;;;5035137;28;21046;-66
2022/06/18 01:59:51;;;;;;;5.37;4.13;;;23.60;57.10;;;;;;5035251;28;20438;-66
2022/06/18 02:02:17;;;;;;;4.50;4.00;;;23.80;56.90;;;;;;5035142;28;20474;-67
2022/06/18 02:04:43;;;;;;;6.30;3.83;;;23.80;56.70;;;;;;5035789;28;20818;-67
2022/06/18 02:07:09;;;;;;;4.40;4.00;;;23.80;56.70;;;;;;5035373;28;20211;-67
2022/06/18 02:09:45;;;;;;;4.43;4.03;;;23.80;56.60;;;;;;5033911;28;20449;-67
2022/06/18 02:12:18;;;;;;;4.53;4.10;;;23.80;56.60;;;;;;5046133;28;20973;-67
2022/06/18 02:14:48;;;;;;;4.93;4.43;;;23.80;56.60;;;;;;5034981;28;20466;-66
2022/06/18 02:17:17;;;;;;;4.20;3.80;;;23.80;56.60;;;;;;5035125;28;20451;-67
2022/06/18 02:19:47;;;;;;;4.50;4.10;;;23.80;56.50;;;;;;5034515;28;20434;-66
2022/06/18 02:22:13;;;;;;;4.80;4.40;;;23.80;56.50;;;;;;5034963;28;21054;-65
2022/06/18 02:24:40;;;;;;;5.20;3.97;;;23.90;56.40;;;;;;5033278;28;20435;-67
2022/06/18 02:27:09;;;;;;;7.70;4.50;;;23.80;56.40;;;;;;5034700;28;20559;-67
2022/06/18 02:29:35;;;;;;;4.80;4.20;;;23.80;56.30;;;;;;5032988;28;20805;-66
2022/06/18 02:32:04;;;;;;;4.20;3.90;;;23.80;56.30;;;;;;5032306;28;20463;-66
2022/06/18 02:34:31;;;;;;;5.23;3.97;;;23.80;56.30;;;;;;5032841;28;20219;-66
2022/06/18 02:37:04;;;;;;;4.40;4.00;;;23.80;56.30;;;;;;5033463;28;20431;-66
2022/06/18 02:39:51;;;;;;;4.20;3.80;;;23.80;56.30;;;;;;5032654;28;20447;-66
2022/06/18 02:42:19;;;;;;;4.17;3.73;;;23.70;56.30;;;;;;5038111;28;20523;-66
2022/06/18 02:44:46;;;;;;;6.90;3.87;;;23.80;56.60;;;;;;5034794;28;20446;-66
2022/06/18 02:47:13;;;;;;;4.27;3.70;;;23.80;55.60;;;;;;5034300;28;20446;-66
2022/06/18 02:49:44;;;;;;;3.70;3.40;;;23.70;55.20;;;;;;5032299;28;20525;-66
2022/06/18 02:52:10;;;;;;;3.97;3.60;;;23.60;55.10;;;;;;5033940;28;20472;-66
2022/06/18 02:54:36;;;;;;;4.17;3.87;;;23.50;55.10;;;;;;5014097;28;20501;-66
2022/06/18 02:57:09;;;;;;;3.80;3.50;;;23.50;55.20;;;;;;5037765;28;20517;-67
2022/06/18 02:59:35;;;;;;;4.10;3.70;;;23.40;55.50;;;;;;5047207;28;21142;-67
2022/06/18 03:02:00;;;;;;;4.60;3.60;;;23.40;55.60;;;;;;5034057;28;20554;-68
2022/06/18 03:04:26;;;;;;;3.97;3.53;;;23.30;55.90;;;;;;5032828;28;20196;-67
2022/06/18 03:06:52;;;;;;;3.93;3.53;;;23.40;55.70;;;;;;5034888;28;20270;-67
2022/06/18 03:09:17;;;;;;;4.57;3.67;;;23.20;56.00;;;;;;5031745;28;20207;-67
2022/06/18 03:14:27;;;;;;;3.77;3.47;;;23.00;56.40;;;;;;5032706;28;20722;-68
2022/06/18 03:16:53;;;;;;;4.37;3.97;;;22.90;56.50;;;;;;5035101;28;20461;-67
2022/06/18 03:19:40;;;;;;;4.00;3.70;;;22.80;56.60;;;;;;5017929;28;20212;-66
2022/06/18 03:22:12;;;;;;;3.93;3.57;;;22.80;56.90;;;;;;5032354;28;20840;-66
2022/06/18 03:24:40;;;;;;;8.20;4.80;;;22.80;56.90;;;;;;5048641;28;20596;-66
2022/06/18 03:27:07;;;;;;;4.03;3.73;;;22.70;57.20;;;;;;5033462;28;20438;-68
2022/06/18 03:29:33;;;;;;;5.63;4.20;;;22.60;57.50;;;;;;5035016;28;20434;-68
2022/06/18 03:32:01;;;;;;;4.00;3.70;;;22.50;57.70;;;;;;5033590;28;20463;-67
2022/06/18 03:34:27;;;;;;;5.33;3.60;;;22.60;58.00;;;;;;5032995;28;20476;-68
2022/06/18 03:36:53;;;;;;;3.90;3.60;;;22.70;57.70;;;;;;5035608;28;20568;-68
2022/06/18 03:39:18;;;;;;;4.20;3.80;;;22.60;57.90;;;;;;5050192;28;20191;-68
2022/06/18 03:41:44;;;;;;;3.97;3.57;;;22.50;58.10;;;;;;5032558;28;20826;-68
2022/06/18 03:44:09;;;;;;;5.40;4.20;;;22.40;58.30;;;;;;5034909;28;20302;-67
2022/06/18 03:46:39;;;;;;;8.20;3.70;;;22.30;58.40;;;;;;5034165;28;20539;-67
2022/06/18 03:49:06;;;;;;;4.40;4.00;;;22.50;58.40;;;;;;5032418;28;20184;-67
2022/06/18 03:51:33;;;;;;;3.40;3.10;;;22.60;58.00;;;;;;5021470;28;20468;-70
2022/06/18 03:54:00;;;;;;;4.10;3.73;;;22.50;57.80;;;;;;5039027;28;20845;-67
2022/06/18 03:56:30;;;;;;;4.13;3.73;;;22.60;58.00;;;;;;5033673;28;20519;-69
2022/06/18 03:58:56;;;;;;;4.53;4.13;;;22.50;58.30;;;;;;5031521;28;20787;-70
2022/06/18 04:01:25;;;;;;;4.90;4.10;;;22.60;58.70;;;;;;5033064;28;20439;-68
2022/06/18 04:03:51;;;;;;;4.83;4.10;;;22.50;58.90;;;;;;5034428;28;20177;-68
2022/06/18 04:06:16;;;;;;;4.10;3.80;;;22.50;58.90;;;;;;5033659;28;20488;-68
2022/06/18 04:08:44;;;;;;;4.23;3.83;;;22.50;59.00;;;;;;5033245;28;20545;-68
2022/06/18 04:11:10;;;;;;;4.53;4.00;;;22.60;58.90;;;;;;5033842;28;20771;-67
2022/06/18 04:13:36;;;;;;;4.70;4.13;;;22.70;58.90;;;;;;5031610;28;20504;-68
2022/06/18 04:16:01;;;;;;;4.00;3.57;;;22.60;59.00;;;;;;5036324;28;20548;-68
2022/06/18 04:18:27;;;;;;;4.40;4.00;;;22.60;59.30;;;;;;5031992;28;20629;-68
2022/06/18 04:20:54;;;;;;;4.10;3.70;;;22.70;59.00;;;;;;5022082;28;20180;-67
2022/06/18 04:23:20;;;;;;;4.33;3.93;;;22.70;59.20;;;;;;5032999;28;20692;-68
2022/06/18 04:25:46;;;;;;;4.43;4.13;;;22.70;59.60;;;;;;5034222;28;20430;-69
2022/06/18 04:28:13;;;;;;;4.70;4.30;;;22.70;59.60;;;;;;5036088;28;20575;-67
2022/06/18 04:30:39;;;;;;;4.17;3.60;;;22.70;59.70;;;;;;5033974;28;20280;-68
2022/06/18 04:33:05;;;;;;;4.20;3.87;;;22.70;59.60;;;;;;5037587;28;20447;-67
2022/06/18 04:35:31;;;;;;;4.43;3.53;;;22.70;59.80;;;;;;5033728;28;20231;-68
2022/06/18 04:37:57;;;;;;;7.23;4.83;;;22.70;59.80;;;;;;5032973;28;20999;-67
2022/06/18 04:40:31;;;;;;;4.23;3.80;;;22.70;59.60;;;;;;5032899;28;20417;-68
2022/06/18 04:43:01;;;;;;;4.53;3.80;;;22.80;59.40;;;;;;5035839;28;20203;-67
2022/06/18 04:45:28;;;;;;;3.57;3.20;;;22.80;59.00;;;;;;5030801;28;20792;-67
2022/06/18 04:47:54;;;;;;;5.53;3.80;;;22.80;59.40;;;;;;5032198;28;20533;-66
2022/06/18 04:50:24;;;;;;;4.20;3.90;;;22.90;59.40;;;;;;5017655;28;20481;-69
2022/06/18 04:52:51;;;;;;;5.47;4.00;;;23.00;59.30;;;;;;5034680;28;20493;-66
2022/06/18 04:55:17;;;;;;;5.53;3.90;;;22.90;59.40;;;;;;5031310;28;20434;-68
2022/06/18 04:57:46;;;;;;;4.30;3.90;;;23.00;58.80;;;;;;5034398;28;20548;-68
2022/06/18 05:00:12;;;;;;;4.23;3.80;;;22.90;58.70;;;;;;5033122;28;20465;-68
2022/06/18 05:02:39;;;;;;;4.10;3.70;;;22.90;58.60;;;;;;5017192;28;20852;-66
2022/06/18 05:05:10;;;;;;;4.63;4.23;;;23.00;58.20;;;;;;5032655;28;20430;-68
2022/06/18 05:07:36;;;;;;;4.43;4.03;;;23.10;58.20;;;;;;5035909;28;20427;-68
2022/06/18 05:10:02;;;;;;;4.80;4.40;;;23.20;57.90;;;;;;5036639;28;20978;-67
2022/06/18 05:12:28;;;;;;;4.43;4.00;;;23.10;58.10;;;;;;5034608;28;20208;-67
2022/06/18 05:14:53;;;;;;;5.43;4.10;;;23.10;57.90;;;;;;5035170;28;20426;-68
2022/06/18 05:17:22;;;;;;;4.33;3.50;;;23.10;58.60;;;;;;5034428;28;20273;-68
2022/06/18 05:19:48;;;;;;;4.60;3.90;;;23.10;58.80;;;;;;5030684;28;20183;-67
2022/06/18 05:22:14;;;;;;;4.30;3.90;;;23.00;58.80;;;;;;5034061;28;20499;-68
2022/06/18 05:24:39;;;;;;;4.40;3.63;;;23.10;58.50;;;;;;5032804;28;20262;-67
2022/06/18 05:27:05;;;;;;;5.20;3.83;;;23.10;58.30;;;;;;5032589;28;20438;-68
2022/06/18 05:29:31;;;;;;;4.17;3.87;;;23.10;58.40;;;;;;5034920;28;20548;-67
2022/06/18 05:31:57;;;;;;;5.20;4.77;;;23.10;58.10;;;;;;5033391;28;20446;-68
2022/06/18 05:34:23;;;;;;;6.37;3.83;;;23.00;58.30;;;;;;5030660;28;20188;-68
2022/06/18 05:36:49;;;;;;;4.40;4.10;;;23.10;58.50;;;;;;5037239;28;20200;-68
2022/06/18 05:39:18;;;;;;;4.00;3.70;;;23.20;58.40;;;;;;5030568;28;20263;-68
2022/06/18 05:41:43;;;;;;;4.13;3.73;;;23.20;58.50;;;;;;5030466;28;20267;-68
2022/06/18 05:44:09;;;;;;;4.37;4.07;;;23.20;58.20;;;;;;5027897;28;20430;-67
2022/06/18 05:46:35;;;;;;;5.03;4.00;;;23.30;58.30;;;;;;5031006;28;20191;-69
2022/06/18 05:49:00;;;;;;;4.17;3.77;;;23.20;58.30;;;;;;5030467;28;20207;-67
2022/06/18 05:51:26;;;;;;;5.13;4.20;;;23.30;58.60;;;;;;5031129;28;20188;-69
2022/06/18 05:53:52;;;;;;;4.27;3.90;;;23.30;58.80;;;;;;5033266;28;20248;-68
2022/06/18 05:56:18;;;;;;;4.17;3.77;;;23.20;59.10;;;;;;5030180;28;20833;-68
2022/06/18 05:58:44;;;;;;;4.50;4.07;;;23.30;59.10;;;;;;5027671;28;20191;-70
2022/06/18 06:01:09;;;;;;;4.73;3.57;;;23.30;59.30;;;;;;5030962;28;20176;-67
2022/06/18 06:03:35;;;;;;;4.70;4.03;;;23.30;59.40;;;;;;5029395;28;20504;-67
2022/06/18 06:06:01;;;;;;;4.50;4.10;;;23.20;59.80;;;;;;5035231;28;20649;-68
2022/06/18 06:08:26;;;;;;;4.80;4.40;;;23.30;60.00;;;;;;5013647;28;21035;-68
2022/06/18 06:13:36;;;;;;;4.27;3.97;;;23.40;60.30;;;;;;5029671;28;21021;-68
2022/06/18 06:16:02;;;;;;;7.37;4.53;;;23.50;60.40;;;;;;5030210;28;20467;-67
2022/06/18 06:18:29;;;;;;;4.63;4.23;;;23.60;60.20;;;;;;5035088;28;20183;-67
2022/06/18 06:20:56;;;;;;;5.43;4.13;;;23.60;59.70;;;;;;5033861;28;20824;-67
2022/06/18 06:23:22;;;;;;;4.57;4.10;;;23.80;60.30;;;;;;5031907;28;20489;-69
2022/06/18 06:25:49;;;;;;;5.00;4.50;;;23.70;60.40;;;;;;5033697;28;20437;-68
2022/06/18 06:28:22;;;;;;;4.17;3.77;;;23.70;60.20;;;;;;5036063;28;20199;-66
2022/06/18 06:30:48;;;;;;;5.87;4.30;;;23.70;60.50;;;;;;5031238;28;20422;-69
2022/06/18 06:33:14;;;;;;;4.37;3.97;;;23.70;60.40;;;;;;5035612;28;20450;-66
2022/06/18 06:35:39;;;;;;;4.17;3.77;;;23.70;59.90;;;;;;5036407;28;20511;-66
2022/06/18 06:38:06;;;;;;;6.17;4.17;;;23.80;59.80;;;;;;5034945;28;20181;-65
2022/06/18 06:40:33;;;;;;;4.50;3.97;;;23.90;60.00;;;;;;5035314;28;20807;-69
2022/06/18 06:42:59;;;;;;;3.73;3.43;;;24.00;59.80;;;;;;5034407;28;20454;-66
2022/06/18 06:45:30;;;;;;;4.63;4.23;;;24.20;59.20;;;;;;5032669;28;20876;-66
2022/06/18 06:47:56;;;;;;;5.00;4.10;;;24.40;58.40;;;;;;5034528;28;20935;-67
2022/06/18 06:50:24;;;;;;;4.37;3.97;;;24.50;58.10;;;;;;5020140;28;20437;-65
2022/06/18 06:52:50;;;;;;;4.03;3.73;;;24.50;57.60;;;;;;5032720;28;20454;-66
2022/06/18 06:58:04;;;;;;;4.10;3.70;;;24.60;58.20;;;;;;5031623;28;20930;-66
2022/06/18 07:00:33;;;;;;;4.27;3.87;;;24.70;58.30;;;;;;5031329;28;20439;-66
2022/06/18 07:02:58;;;;;;;4.53;4.10;;;24.90;58.00;;;;;;5030860;28;20915;-66
2022/06/18 07:05:24;;;;;;;4.73;4.33;;;24.90;58.20;;;;;;5031894;28;20446;-66
2022/06/18 07:07:49;;;;;;;5.10;4.60;;;24.90;57.80;;;;;;5018515;28;20687;-66
2022/06/18 07:10:15;;;;;;;4.30;3.90;;;25.10;57.40;;;;;;5033440;28;20192;-66
2022/06/18 07:12:41;;;;;;;4.33;3.93;;;25.10;57.50;;;;;;5032451;28;20200;-65
2022/06/18 07:15:07;;;;;;;7.10;4.60;;;25.10;57.70;;;;;;5040089;28;20604;-65
2022/06/18 07:17:33;;;;;;;5.80;4.60;;;25.20;57.40;;;;;;5034676;28;20684;-66
2022/06/18 07:19:59;;;;;;;9.10;4.77;;;25.20;57.40;;;;;;5033040;28;20533;-66
2022/06/18 07:22:25;;;;;;;4.93;4.53;;;25.20;57.60;;;;;;5037326;28;20529;-66
2022/06/18 07:24:51;;;;;;;4.40;4.00;;;25.30;57.70;;;;;;5034312;28;20628;-66
2022/06/18 07:27:17;;;;;;;4.33;3.93;;;25.50;57.60;;;;;;5034129;28;20439;-66
2022/06/18 07:29:42;;;;;;;7.43;4.73;;;25.50;57.60;;;;;;5031880;28;20532;-65
2022/06/18 07:32:13;;;;;;;5.23;4.73;;;25.60;57.40;;;;;;5032659;28;20459;-66
2022/06/18 07:34:39;;;;;;;4.90;4.50;;;25.60;57.10;;;;;;5030616;28;20660;-69
2022/06/18 07:37:05;;;;;;;6.30;4.50;;;25.80;56.90;;;;;;5031664;28;20546;-68
2022/06/18 07:39:30;;;;;;;4.83;4.37;;;25.80;56.70;;;;;;5031564;28;20201;-67
2022/06/18 07:41:56;;;;;;;5.67;4.30;;;25.90;56.70;;;;;;5032571;28;20236;-67
2022/06/18 07:44:24;;;;;;;5.10;4.60;;;26.10;56.50;;;;;;5031602;28;20181;-66
2022/06/18 07:47:03;;;;;;;5.43;4.83;;;26.20;56.40;;;;;;5029481;28;20187;-66
2022/06/18 07:49:30;;;;;;;4.50;4.13;;;26.20;56.10;;;;;;5014382;28;20435;-66
2022/06/18 07:51:56;;;;;;;4.73;4.33;;;26.10;56.00;;;;;;5034702;28;20472;-65
2022/06/18 07:54:22;;;;;;;6.20;4.43;;;26.20;56.10;;;;;;5033208;28;20939;-66
2022/06/18 07:56:48;;;;;;;6.00;4.47;;;26.30;55.90;;;;;;5032544;28;20951;-64
2022/06/18 07:59:15;;;;;;;4.67;4.27;;;26.40;55.80;;;;;;5043096;28;20180;-65
2022/06/18 08:01:41;;;;;;;7.80;4.40;;;26.50;55.90;;;;;;5032221;28;20188;-66
2022/06/18 08:04:07;;;;;;;6.50;5.13;;;26.60;55.60;;;;;;5037285;28;20430;-65
2022/06/18 08:06:33;;;;;;;6.37;4.27;;;26.80;54.60;;;;;;5033830;28;20202;-66
2022/06/18 08:08:58;;;;;;;6.23;5.60;;;26.80;54.60;;;;;;5033054;28;20691;-66
2022/06/18 08:11:25;;;;;;;9.93;4.90;;;26.80;54.60;;;;;;5036364;28;20204;-65
2022/06/18 08:13:52;;;;;;;4.87;4.40;;;26.90;54.50;;;;;;5031499;28;20267;-65
2022/06/18 08:16:20;;;;;;;4.40;4.10;;;27.10;54.60;;;;;;5033159;28;20462;-66
2022/06/18 08:18:46;;;;;;;6.80;4.50;;;27.10;54.50;;;;;;5035736;28;20518;-67
2022/06/18 08:21:16;;;;;;;6.43;4.70;;;27.20;54.50;;;;;;5032245;28;21255;-65
2022/06/18 08:23:42;;;;;;;5.53;5.03;;;27.20;54.60;;;;;;5032488;28;20457;-64
2022/06/18 08:26:08;;;;;;;4.77;3.80;;;27.30;54.50;;;;;;5031611;28;20427;-66
2022/06/18 08:28:36;;;;;;;17.03;13.00;;;27.40;54.30;;;;;;5029753;28;20434;-66
2022/06/18 08:31:04;;;;;;;8.90;4.70;;;27.50;54.90;;;;;;5035741;28;20426;-65
2022/06/18 08:33:30;;;;;;;11.23;9.93;;;27.50;53.60;;;;;;5035173;28;20509;-65
2022/06/18 08:36:01;;;;;;;4.80;4.40;;;27.60;53.20;;;;;;5031439;28;20470;-65
2022/06/18 08:38:28;;;;;;;7.20;4.10;;;27.60;53.40;;;;;;5031354;28;20970;-65
2022/06/18 08:41:31;;;;;;;5.30;4.90;;;27.70;53.30;;;;;;5030976;28;20427;-68
2022/06/18 08:44:16;;;;;;;4.50;4.13;;;27.80;53.00;;;;;;4958804;28;20453;-66
2022/06/18 08:47:03;;;;;;;3.97;3.57;;;27.80;53.00;;;;;;5029018;28;20427;-67
2022/06/18 08:50:06;;;;;;;4.53;4.13;;;27.90;52.80;;;;;;5032363;28;20440;-67
2022/06/18 08:52:39;;;;;;;4.97;4.43;;;28.00;52.10;;;;;;5031595;28;20540;-67
2022/06/18 08:55:34;;;;;;;4.13;3.83;;;28.10;51.50;;;;;;5030299;28;20435;-66
2022/06/18 08:58:35;;;;;;;6.67;4.90;;;28.10;51.60;;;;;;4975117;28;20515;-64
2022/06/18 09:01:15;;;;;;;4.23;3.73;;;28.20;51.10;;;;;;4932675;28;20446;-66
2022/06/18 09:04:00;;;;;;;3.97;3.67;;;28.20;49.60;;;;;;5001842;28;20812;-65
2022/06/18 09:06:39;;;;;;;6.03;5.60;;;28.30;49.00;;;;;;5032148;28;20438;-65
2022/06/18 09:09:18;;;;;;;8.13;4.03;;;28.30;48.90;;;;;;5029948;28;20564;-66
2022/06/18 09:11:56;;;;;;;5.13;4.73;;;28.40;48.80;;;;;;5030241;28;21048;-66
2022/06/18 09:14:50;;;;;;;4.30;3.90;;;28.50;48.90;;;;;;5031495;28;20490;-66
2022/06/18 09:17:39;;;;;;;4.70;4.27;;;28.70;47.90;;;;;;5032284;28;20466;-66
2022/06/18 09:20:09;;;;;;;6.03;3.50;;;28.90;47.60;;;;;;5031278;28;20812;-66
2022/06/18 09:22:43;;;;;;;6.27;3.60;;;29.00;46.50;;;;;;5029579;28;21027;-66
2022/06/18 09:25:14;;;;;;;4.03;3.53;;;29.10;46.60;;;;;;5028382;28;20820;-67
2022/06/18 09:28:07;;;;;;;6.43;5.77;;;29.20;46.80;;;;;;5009439;28;20430;-66
2022/06/18 09:30:40;;;;;;;4.80;3.70;;;29.30;46.80;;;;;;5016995;28;20457;-66
2022/06/18 09:33:17;;;;;;;4.00;3.57;;;29.30;46.60;;;;;;5044524;28;20466;-65
2022/06/18 09:35:56;;;;;;;6.20;3.33;;;29.30;46.00;;;;;;5031785;28;20439;-66
2022/06/18 09:38:27;;;;;;;5.07;4.50;;;29.40;46.60;;;;;;5029158;28;20468;-66
2022/06/18 09:41:19;;;;;;;4.57;4.17;;;29.50;47.40;;;;;;5028277;28;20438;-66
2022/06/18 09:43:57;;;;;;;3.83;3.43;;;29.60;46.10;;;;;;5004535;28;21114;-66
2022/06/18 09:46:52;;;;;;;4.30;3.10;;;29.70;45.50;;;;;;5031816;28;20430;-65
2022/06/18 09:49:18;;;;;;;6.93;4.93;;;29.80;45.00;;;;;;5028552;28;20516;-66
2022/06/18 09:52:04;;;;;;;3.43;3.20;;;29.90;45.10;;;;;;5014874;28;20466;-66
2022/06/18 09:55:01;;;;;;;4.80;3.30;;;29.90;45.00;;;;;;5034808;28;20184;-66
2022/06/18 09:57:31;;;;;;;6.30;3.80;;;30.00;45.10;;;;;;5028352;28;20451;-66
2022/06/18 10:00:13;;;;;;;3.87;3.57;;;30.10;45.30;;;;;;5035706;28;20401;-67
2022/06/18 10:02:45;;;;;;;3.47;3.17;;;30.20;44.90;;;;;;5038123;28;20435;-67
2022/06/18 10:08:06;;;;;;;3.83;3.53;;;30.40;44.20;;;;;;5034737;28;20513;-67
2022/06/18 10:10:34;;;;;;;4.00;3.70;;;30.50;43.90;;;;;;5033305;28;20530;-67
2022/06/18 10:13:00;;;;;;;6.13;4.80;;;30.60;44.60;;;;;;5033283;28;20450;-67
2022/06/18 10:15:28;;;;;;;3.93;3.53;;;30.60;43.90;;;;;;5032326;28;21239;-67
2022/06/18 10:18:25;;;;;;;4.07;3.67;;;30.60;43.90;;;;;;5036464;28;20398;-67
2022/06/18 10:21:18;;;;;;;3.37;3.07;;;30.70;43.00;;;;;;5032802;28;20507;-67
2022/06/18 10:23:56;;;;;;;3.53;3.23;;;30.80;42.30;;;;;;5034023;28;20417;-68
2022/06/18 10:26:37;;;;;;;3.73;3.13;;;30.80;41.50;;;;;;5036997;28;20839;-66
2022/06/18 10:29:35;;;;;;;3.93;3.13;;;31.00;42.40;;;;;;5032453;28;20409;-67
2022/06/18 10:32:17;;;;;;;3.57;3.20;;;31.10;41.20;;;;;;5032693;28;20417;-67
2022/06/18 10:35:01;;;;;;;8.23;3.50;;;31.10;41.10;;;;;;5031325;28;20456;-68
2022/06/18 10:37:49;;;;;;;4.53;3.03;;;31.30;40.60;;;;;;5015530;28;20952;-68
2022/06/18 10:40:34;;;;;;;2.90;2.50;;;31.40;40.10;;;;;;5035554;28;20492;-68
2022/06/18 10:43:19;;;;;;;3.10;2.80;;;31.60;40.40;;;;;;5048475;28;20477;-66
2022/06/18 10:45:54;;;;;;;3.67;3.37;;;31.80;39.10;;;;;;5034958;28;20417;-66
2022/06/18 10:48:34;;;;;;;2.90;2.70;;;31.90;39.30;;;;;;5034507;28;20433;-66
2022/06/18 10:51:01;;;;;;;3.10;2.80;;;32.00;39.70;;;;;;5032547;28;20438;-67
2022/06/18 10:53:44;;;;;;;3.10;2.90;;;32.20;40.70;;;;;;5032088;28;20988;-66
2022/06/18 10:56:24;;;;;;;4.40;3.30;;;32.30;40.60;;;;;;5029143;28;20437;-67
2022/06/18 10:59:02;;;;;;;3.60;3.23;;;32.50;40.90;;;;;;5013599;28;20439;-67
2022/06/18 11:01:36;;;;;;;4.00;3.20;;;32.50;40.10;;;;;;5032724;28;21328;-69
2022/06/18 11:04:05;;;;;;;2.83;2.63;;;32.60;39.70;;;;;;5028528;28;20464;-69
2022/06/18 11:06:31;;;;;;;4.30;3.93;;;32.60;39.60;;;;;;5030078;28;20854;-68
2022/06/18 11:09:00;;;;;;;3.30;3.10;;;32.70;40.00;;;;;;5014780;28;20421;-67
2022/06/18 11:11:36;;;;;;;3.60;3.13;;;32.80;40.30;;;;;;5046052;28;20522;-67
2022/06/18 11:14:15;;;;;;;3.10;2.90;;;32.80;40.40;;;;;;5036426;28;20935;-69
2022/06/18 11:16:43;;;;;;;4.77;4.00;;;32.90;40.40;;;;;;5032508;28;20830;-69
2022/06/18 11:19:32;;;;;;;3.60;2.80;;;32.90;41.30;;;;;;5015116;28;20475;-70
2022/06/18 11:22:10;;;;;;;3.93;3.53;;;33.10;41.00;;;;;;5029132;28;20852;-67
2022/06/18 11:24:37;;;;;;;4.07;3.20;;;33.10;39.80;;;;;;5030265;28;20446;-67
2022/06/18 11:27:12;;;;;;;3.50;3.20;;;33.30;39.90;;;;;;5019692;28;21299;-66
2022/06/18 11:29:55;;;;;;;4.67;3.23;;;33.40;39.50;;;;;;5033143;28;20996;-65
2022/06/18 11:32:34;;;;;;;4.60;3.20;;;33.60;39.30;;;;;;5043675;28;20478;-68
2022/06/18 11:35:03;;;;;;;3.27;3.07;;;33.90;40.00;;;;;;5031892;28;20408;-67
2022/06/18 11:37:31;;;;;;;6.93;3.20;;;34.10;40.00;;;;;;5030309;28;21107;-71
2022/06/18 11:40:03;;;;;;;4.83;3.27;;;34.30;40.40;;;;;;5012967;28;20454;-69
2022/06/18 11:42:49;;;;;;;6.23;3.40;;;34.50;39.50;;;;;;5031023;28;20417;-69
2022/06/18 11:45:50;;;;;;;3.70;3.17;;;34.80;39.00;;;;;;5029353;28;20491;-69
2022/06/18 11:49:01;;;;;;;3.97;3.67;;;34.90;38.20;;;;;;5030496;28;20405;-71
2022/06/18 11:51:35;;;;;;;5.30;4.87;;;35.10;38.10;;;;;;5026002;28;21038;-68
2022/06/18 11:54:26;;;;;;;4.20;3.57;;;35.40;37.30;;;;;;5027138;28;20442;-68
2022/06/18 11:57:05;;;;;;;3.60;3.30;;;35.80;36.40;;;;;;5027210;28;20865;-68
2022/06/18 11:59:52;;;;;;;6.40;3.20;;;36.00;36.30;;;;;;5027309;28;20465;-68
2022/06/18 12:02:34;;;;;;;3.50;3.20;;;36.40;36.20;;;;;;5027218;28;20446;-69
2022/06/18 12:05:06;;;;;;;4.73;3.90;;;37.20;36.40;;;;;;5021451;28;20496;-72
2022/06/18 12:07:50;;;;;;;8.00;3.60;;;38.30;36.00;;;;;;5011636;28;21246;-70
2022/06/18 12:10:17;;;;;;;3.57;3.27;;;40.00;35.10;;;;;;5027801;28;20469;-70
2022/06/18 12:12:46;;;;;;;5.60;3.50;;;41.80;33.00;;;;;;5027967;28;20905;-69
2022/06/18 12:15:28;;;;;;;4.80;4.40;;;43.00;31.50;;;;;;5022395;28;20438;-69
2022/06/18 12:18:07;;;;;;;4.10;3.73;;;44.30;30.90;;;;;;5025962;28;20438;-69
2022/06/18 12:20:41;;;;;;;4.10;3.70;;;45.30;29.90;;;;;;5029912;28;20520;-69
2022/06/18 12:23:19;;;;;;;3.20;2.90;;;45.80;29.50;;;;;;5026214;28;20451;-69
2022/06/18 12:26:15;;;;;;;2.67;2.47;;;46.40;29.00;;;;;;5034694;28;20464;-69
2022/06/18 12:29:28;;;;;;;3.30;3.00;;;46.80;28.10;;;;;;5035793;28;20462;-69
2022/06/18 12:32:13;;;;;;;3.70;3.40;;;46.80;28.10;;;;;;5024473;28;20511;-69
2022/06/18 12:34:54;;;;;;;3.83;3.20;;;47.30;28.30;;;;;;5032188;28;20439;-69
2022/06/18 12:37:31;;;;;;;4.87;4.47;;;47.60;27.90;;;;;;5033645;28;21107;-69
2022/06/18 12:40:24;;;;;;;6.13;3.20;;;47.80;28.00;;;;;;5029243;28;20238;-69
2022/06/18 12:43:00;;;;;;;3.97;3.03;;;47.90;27.90;;;;;;5029278;28;20281;-69
2022/06/18 12:45:31;;;;;;;4.15;3.00;;;47.90;27.80;;;;;;5034983;28;20547;-69
2022/06/18 12:48:06;;;;;;;3.42;3.13;;;48.40;27.50;;;;;;5036805;28;20176;-69
2022/06/18 12:50:41;;;;;;;6.68;3.40;;;48.60;26.80;;;;;;5031060;28;20538;-69
2022/06/18 12:53:31;;;;;;;5.95;4.38;;;48.90;26.60;;;;;;5028620;28;20207;-69
2022/06/18 12:56:08;;;;;;;6.30;5.78;;;49.10;27.20;;;;;;5031444;28;20313;-69
2022/06/18 12:58:41;;;;;;;9.43;3.80;;;49.30;26.90;;;;;;5031281;28;20179;-69
2022/06/18 13:01:25;;;;;;;6.07;3.60;;;49.30;26.60;;;;;;5031364;28;20176;-69
2022/06/18 13:04:25;;;;;;;7.00;4.70;;;49.30;27.10;;;;;;5036330;28;20202;-69
2022/06/18 13:07:07;;;;;;;6.28;3.42;;;49.30;26.80;;;;;;5032487;28;20211;-69
2022/06/18 13:10:12;;;;;;;4.90;3.58;;;49.40;26.90;;;;;;5030195;28;20210;-69
2022/06/18 13:13:01;;;;;;;5.55;4.85;;;49.60;26.70;;;;;;5031871;28;20207;-69
2022/06/18 13:15:47;;;;;;;5.30;4.90;;;49.70;26.50;;;;;;5013214;28;20203;-69
2022/06/18 13:18:31;;;;;;;4.03;3.42;;;49.70;26.30;;;;;;5031542;28;20197;-69
2022/06/18 13:21:03;;;;;;;5.47;3.33;;;49.80;26.60;;;;;;5031015;28;20183;-69
2022/06/18 13:29:22;;;;;;;3.58;3.28;;;49.70;27.10;;;;;;5029836;28;20201;-69
2022/06/18 13:32:00;;;;;;;3.58;3.15;;;49.20;25.90;;;;;;5031184;28;20206;-68